Time;durP1;ratioP1;P1;durP2;ratioP2;P2;SDS_P1;SDS_P2;PMS_P1;PMS_P2;Temp;Humidity;BMP_temperature;BMP_pressure;BME280_temperature;BME280_humidity;BME280_pressure;Samples;Min_cycle;Max_cycle;Signal;HPM_P1;HPM_P2
2023/07/08 00:00:43;;;;;;;303.65;289.25;;;15.50;99.90;;;;;;5019983;28;20041;-66
2023/07/08 00:03:09;;;;;;;270.48;258.02;;;15.50;99.90;;;;;;5033743;28;20545;-66
2023/07/08 00:05:35;;;;;;;293.98;279.98;;;15.50;99.90;;;;;;5019580;28;20133;-66
2023/07/08 00:08:01;;;;;;;234.00;223.35;;;15.40;99.90;;;;;;5017849;28;20039;-66
2023/07/08 00:10:28;;;;;;;258.45;246.57;;;15.50;99.90;;;;;;5000687;28;20486;-65
2023/07/08 00:12:56;;;;;;;210.85;201.23;;;15.50;99.90;;;;;;5018522;28;20450;-66
2023/07/08 00:15:27;;;;;;;212.35;202.65;;;15.50;99.90;;;;;;5017237;28;20043;-65
2023/07/08 00:17:53;;;;;;;168.57;160.60;;;15.40;99.90;;;;;;5003447;28;20636;-66
2023/07/08 00:20:36;;;;;;;159.65;152.40;;;15.40;99.90;;;;;;5003659;28;20100;-66
2023/07/08 00:23:03;;;;;;;169.60;161.83;;;15.40;99.90;;;;;;5031532;28;20042;-66
2023/07/08 00:25:30;;;;;;;139.00;132.57;;;15.40;99.90;;;;;;5016963;28;20041;-66
2023/07/08 00:27:55;;;;;;;150.43;143.43;;;15.40;99.90;;;;;;5033765;28;20414;-66
2023/07/08 00:30:30;;;;;;;123.35;117.75;;;15.40;99.90;;;;;;5021280;28;20035;-66
2023/07/08 00:32:56;;;;;;;138.15;131.55;;;15.40;99.90;;;;;;5036857;28;20037;-65
2023/07/08 00:35:41;;;;;;;131.48;125.57;;;15.40;99.90;;;;;;5040662;28;20049;-66
2023/07/08 00:38:19;;;;;;;117.18;111.35;;;15.50;99.90;;;;;;5020303;28;20033;-65
2023/07/08 00:40:57;;;;;;;362.27;343.52;;;15.50;99.90;;;;;;5040150;28;20141;-66
2023/07/08 00:43:35;;;;;;;130.13;124.32;;;15.50;99.90;;;;;;5021064;28;20425;-66
2023/07/08 00:46:42;;;;;;;111.40;106.30;;;15.50;99.90;;;;;;5024310;28;20116;-66
2023/07/08 00:49:07;;;;;;;100.10;95.47;;;15.50;99.90;;;;;;5001635;28;20045;-66
2023/07/08 00:51:35;;;;;;;109.68;104.57;;;15.50;99.90;;;;;;5024767;28;20041;-66
2023/07/08 00:54:00;;;;;;;121.30;115.72;;;15.50;99.90;;;;;;5019381;28;20037;-66
2023/07/08 00:56:35;;;;;;;96.85;91.72;;;15.50;99.90;;;;;;5021545;28;20036;-66
2023/07/08 00:59:06;;;;;;;;;;;15.50;99.90;;;;;;5040095;28;20067;-66
2023/07/08 01:01:37;;;;;;;78.32;74.60;;;15.50;99.90;;;;;;5041228;28;19928;-66
2023/07/08 01:04:09;;;;;;;68.88;65.53;;;15.50;99.90;;;;;;5019801;28;20041;-66
2023/07/08 01:06:39;;;;;;;69.70;66.40;;;15.60;99.90;;;;;;5024574;28;20131;-67
2023/07/08 01:09:07;;;;;;;69.03;65.72;;;15.50;99.90;;;;;;5023520;28;20075;-66
2023/07/08 01:11:34;;;;;;;80.80;76.70;;;15.50;99.90;;;;;;5038541;28;20041;-66
2023/07/08 01:14:02;;;;;;;80.65;76.63;;;15.50;99.90;;;;;;5020650;28;20037;-66
2023/07/08 01:16:28;;;;;;;73.55;69.90;;;15.50;99.90;;;;;;5019549;28;20045;-66
2023/07/08 01:18:54;;;;;;;71.18;67.65;;;15.50;99.90;;;;;;5019321;28;20529;-66
2023/07/08 01:21:36;;;;;;;67.75;64.32;;;15.50;99.90;;;;;;5037279;28;20512;-66
2023/07/08 01:24:06;;;;;;;68.97;65.60;;;15.50;99.90;;;;;;5039611;28;20064;-66
2023/07/08 01:26:35;;;;;;;64.78;61.38;;;15.50;99.90;;;;;;5018168;28;20045;-65
2023/07/08 01:29:02;;;;;;;63.05;59.78;;;15.50;99.90;;;;;;5003732;28;20045;-66
2023/07/08 01:31:28;;;;;;;80.65;76.63;;;15.50;99.90;;;;;;5038473;28;20037;-65
2023/07/08 01:33:54;;;;;;;176.15;167.52;;;15.60;99.90;;;;;;5020141;28;20132;-66
2023/07/08 01:36:21;;;;;;;1999.90;999.90;;;15.60;99.90;;;;;;5033036;28;20121;-66
2023/07/08 01:38:46;;;;;;;1999.90;999.90;;;15.60;99.90;;;;;;5022304;28;20038;-66
2023/07/08 01:41:14;;;;;;;1999.90;999.90;;;15.50;99.90;;;;;;5021092;28;20048;-66
2023/07/08 01:43:40;;;;;;;1999.90;999.90;;;15.50;99.90;;;;;;5017388;28;20806;-66
2023/07/08 01:46:15;;;;;;;1999.90;999.90;;;15.50;99.90;;;;;;5020340;28;20044;-66
2023/07/08 01:48:45;;;;;;;1999.90;999.90;;;15.40;99.90;;;;;;5003919;28;20384;-66
2023/07/08 01:51:11;;;;;;;1999.90;999.90;;;15.40;99.90;;;;;;5019677;28;20497;-65
2023/07/08 01:53:41;;;;;;;1999.90;999.90;;;15.40;99.90;;;;;;5018865;28;20033;-66
2023/07/08 01:56:08;;;;;;;1999.90;999.90;;;15.40;99.90;;;;;;5035834;28;20072;-66
2023/07/08 01:58:34;;;;;;;1999.90;999.90;;;15.40;99.90;;;;;;5020963;28;20041;-66
2023/07/08 02:01:00;;;;;;;1999.90;999.90;;;15.30;99.90;;;;;;5021796;28;20040;-66
2023/07/08 02:03:27;;;;;;;1999.90;999.90;;;15.20;99.90;;;;;;5021693;28;20041;-65
2023/07/08 02:05:52;;;;;;;1999.90;999.90;;;15.20;99.90;;;;;;5020729;28;20048;-67
2023/07/08 02:08:19;;;;;;;1999.90;999.90;;;15.20;99.90;;;;;;5019134;28;20049;-65
2023/07/08 02:10:51;;;;;;;1999.90;999.90;;;15.10;99.90;;;;;;5022425;28;20513;-65
2023/07/08 02:13:16;;;;;;;1999.90;999.90;;;15.00;99.90;;;;;;5021152;28;20059;-66
2023/07/08 02:15:42;;;;;;;1999.90;999.90;;;15.00;99.90;;;;;;5021067;28;20037;-65
2023/07/08 02:18:08;;;;;;;1999.90;999.90;;;15.00;99.90;;;;;;5034734;28;20050;-65
2023/07/08 02:20:33;;;;;;;1999.90;999.90;;;14.90;99.90;;;;;;5020576;28;20037;-66
2023/07/08 02:22:59;;;;;;;1999.90;999.90;;;14.80;99.90;;;;;;5020314;28;20102;-66
2023/07/08 02:25:25;;;;;;;1999.90;999.90;;;14.80;99.90;;;;;;5035690;28;20048;-66
2023/07/08 02:27:52;;;;;;;1999.90;999.90;;;14.80;99.90;;;;;;5021590;28;20068;-66
2023/07/08 02:30:18;;;;;;;1999.90;999.90;;;14.80;99.90;;;;;;5034571;28;20084;-66
2023/07/08 02:32:56;;;;;;;1999.90;999.90;;;14.80;99.90;;;;;;5020940;28;20083;-66
2023/07/08 02:35:24;;;;;;;1999.90;999.90;;;14.70;99.90;;;;;;5036952;28;20131;-65
2023/07/08 02:37:50;;;;;;;1999.90;999.90;;;14.60;99.90;;;;;;5033501;28;20044;-66
2023/07/08 02:40:15;;;;;;;1999.90;999.90;;;14.60;99.90;;;;;;5003345;28;20033;-65
2023/07/08 02:42:41;;;;;;;1999.90;999.90;;;14.50;99.90;;;;;;5020481;28;20127;-66
2023/07/08 02:45:07;;;;;;;1999.90;999.90;;;14.50;99.90;;;;;;5037804;28;20080;-66
2023/07/08 02:47:33;;;;;;;1999.90;999.90;;;14.40;99.90;;;;;;5017830;28;20099;-66
2023/07/08 02:49:59;;;;;;;1999.90;999.90;;;14.40;99.90;;;;;;5004594;28;20041;-66
2023/07/08 02:52:24;;;;;;;1999.90;999.90;;;14.30;99.90;;;;;;5016921;28;20030;-66
2023/07/08 02:54:50;;;;;;;1999.90;999.90;;;14.30;99.90;;;;;;5020281;28;20045;-65
2023/07/08 02:57:16;;;;;;;1999.90;999.90;;;14.30;99.90;;;;;;5019048;28;20041;-66
2023/07/08 02:59:41;;;;;;;1999.90;999.90;;;14.20;99.90;;;;;;5020296;28;20068;-66
2023/07/08 03:02:07;;;;;;;1999.90;999.90;;;14.20;99.90;;;;;;5020720;28;20115;-66
2023/07/08 03:04:33;;;;;;;1999.90;999.90;;;14.20;99.90;;;;;;5019861;28;20657;-66
2023/07/08 03:06:58;;;;;;;1999.90;999.90;;;14.20;99.90;;;;;;5017322;28;20041;-66
2023/07/08 03:09:24;;;;;;;1999.90;999.90;;;14.20;99.90;;;;;;5020659;28;20045;-65
2023/07/08 03:11:50;;;;;;;1999.90;999.90;;;14.20;99.90;;;;;;5005433;28;20045;-66
2023/07/08 03:14:15;;;;;;;1999.90;999.90;;;14.10;99.90;;;;;;5034190;28;20079;-66
2023/07/08 03:16:41;;;;;;;1999.90;999.90;;;14.10;99.90;;;;;;5019366;28;20034;-66
2023/07/08 03:19:14;;;;;;;1999.90;999.90;;;14.10;99.90;;;;;;5020853;28;20033;-65
2023/07/08 03:21:41;;;;;;;1999.90;999.90;;;14.10;99.90;;;;;;5035299;28;20052;-66
2023/07/08 03:24:11;;;;;;;1999.90;999.90;;;14.10;99.90;;;;;;5019519;28;20421;-65
2023/07/08 03:26:36;;;;;;;1999.90;999.90;;;14.10;99.90;;;;;;5019997;28;20041;-66
2023/07/08 03:29:02;;;;;;;1999.90;999.90;;;14.10;99.90;;;;;;5020628;28;20516;-66
2023/07/08 03:31:28;;;;;;;1999.90;999.90;;;14.10;99.90;;;;;;5026130;28;20477;-66
2023/07/08 03:33:53;;;;;;;1999.90;999.90;;;14.10;99.90;;;;;;5026641;28;20873;-65
2023/07/08 03:36:22;;;;;;;1999.90;999.90;;;14.20;99.90;;;;;;5018081;28;20041;-65
2023/07/08 03:38:56;;;;;;;1999.90;999.90;;;14.20;99.90;;;;;;5030128;28;20050;-65
2023/07/08 03:41:22;;;;;;;1999.90;999.90;;;14.20;99.90;;;;;;5040826;28;20549;-66
2023/07/08 03:43:50;;;;;;;1999.90;999.90;;;14.20;99.90;;;;;;5022968;28;20149;-66
2023/07/08 03:46:16;;;;;;;1999.90;999.90;;;14.20;99.90;;;;;;5038020;28;20037;-66
2023/07/08 03:48:41;;;;;;;1999.90;999.90;;;14.10;99.90;;;;;;5029383;28;20494;-66
2023/07/08 03:51:21;;;;;;;1999.90;999.90;;;14.20;99.90;;;;;;5037204;28;20041;-66
2023/07/08 03:53:46;;;;;;;1999.90;999.90;;;14.20;99.90;;;;;;5022111;28;20096;-65
2023/07/08 03:56:13;;;;;;;1999.90;999.90;;;14.30;99.90;;;;;;5024644;28;20046;-66
2023/07/08 03:58:38;;;;;;;1999.90;999.90;;;14.30;99.90;;;;;;5023400;28;20128;-66
2023/07/08 04:01:04;;;;;;;1999.90;999.90;;;14.30;99.90;;;;;;5018700;28;20136;-66
2023/07/08 04:03:30;;;;;;;1999.90;999.90;;;14.30;99.90;;;;;;5025335;28;20129;-66
2023/07/08 04:05:56;;;;;;;1999.90;999.90;;;14.40;99.90;;;;;;5021837;28;20558;-65
2023/07/08 04:08:21;;;;;;;1999.90;999.90;;;14.40;99.90;;;;;;5026863;28;20037;-65
2023/07/08 04:10:47;;;;;;;1999.90;999.90;;;14.40;99.90;;;;;;5028431;28;20128;-66
2023/07/08 04:13:13;;;;;;;1999.90;999.90;;;14.40;99.90;;;;;;5026975;28;20042;-66
2023/07/08 04:15:38;;;;;;;1999.90;999.90;;;14.50;99.90;;;;;;5028883;28;20038;-66
2023/07/08 04:18:04;;;;;;;1999.90;999.90;;;14.50;99.90;;;;;;5028899;28;20099;-65
2023/07/08 04:20:30;;;;;;;1999.90;999.90;;;14.60;99.90;;;;;;5041637;28;20512;-66
2023/07/08 04:22:55;;;;;;;1999.90;999.90;;;14.60;99.90;;;;;;5012711;28;20041;-66
2023/07/08 04:25:21;;;;;;;1999.90;999.90;;;14.70;99.90;;;;;;5041702;28;20069;-66
2023/07/08 04:27:47;;;;;;;1999.90;999.90;;;14.70;99.90;;;;;;5031364;28;20120;-66
2023/07/08 04:30:22;;;;;;;1999.90;999.90;;;14.70;99.90;;;;;;5027024;28;20055;-66
2023/07/08 04:32:49;;;;;;;1999.90;999.90;;;14.80;99.90;;;;;;5017515;28;20159;-66
2023/07/08 04:35:15;;;;;;;1999.90;999.90;;;14.80;99.90;;;;;;5016011;28;20049;-66
2023/07/08 04:37:41;;;;;;;1999.90;999.90;;;14.90;99.90;;;;;;5029445;28;20045;-66
2023/07/08 04:40:17;;;;;;;1999.90;999.90;;;15.00;99.90;;;;;;5047001;28;20038;-66
2023/07/08 04:42:44;;;;;;;1999.90;999.90;;;15.10;99.90;;;;;;5027208;28;20736;-65
2023/07/08 04:45:10;;;;;;;1999.90;999.90;;;15.10;99.90;;;;;;5011310;28;20033;-65
2023/07/08 04:47:36;;;;;;;1999.90;999.90;;;15.20;99.90;;;;;;5015548;28;20779;-66
2023/07/08 04:50:01;;;;;;;1999.90;999.90;;;15.30;99.90;;;;;;5043395;28;20045;-66
2023/07/08 04:52:27;;;;;;;1999.90;999.90;;;15.40;99.90;;;;;;5026085;28;20478;-66
2023/07/08 04:54:52;;;;;;;1999.90;999.90;;;15.40;99.90;;;;;;5022562;28;20486;-66
2023/07/08 04:57:20;;;;;;;1999.90;999.90;;;15.50;99.90;;;;;;5044120;28;20053;-66
2023/07/08 04:59:46;;;;;;;1999.90;999.90;;;15.60;99.90;;;;;;5023918;28;20057;-66
2023/07/08 05:02:12;;;;;;;1999.90;999.90;;;15.70;99.90;;;;;;5042090;28;20796;-66
2023/07/08 05:04:37;;;;;;;1999.90;999.90;;;15.80;99.90;;;;;;5044209;28;20498;-66
2023/07/08 05:07:03;;;;;;;1999.90;999.90;;;15.90;99.90;;;;;;5012568;28;20065;-66
2023/07/08 05:09:29;;;;;;;1999.90;999.90;;;16.00;99.90;;;;;;5019332;28;20687;-66
2023/07/08 05:11:54;;;;;;;1999.90;999.90;;;16.10;99.90;;;;;;5017516;28;20557;-66
2023/07/08 05:14:20;;;;;;;1999.90;999.90;;;16.20;99.90;;;;;;5010259;28;20484;-66
2023/07/08 05:16:46;;;;;;;1999.90;999.90;;;16.30;99.90;;;;;;5026518;28;20131;-66
2023/07/08 05:19:12;;;;;;;1999.90;999.90;;;16.40;99.90;;;;;;5029623;28;20141;-66
2023/07/08 05:21:38;;;;;;;1999.90;999.90;;;16.60;99.90;;;;;;5022634;28;20654;-66
2023/07/08 05:24:04;;;;;;;1999.90;999.90;;;16.70;99.90;;;;;;5025351;28;20041;-66
2023/07/08 05:26:31;;;;;;;1999.90;999.90;;;16.80;99.90;;;;;;5043546;28;20044;-66
2023/07/08 05:28:57;;;;;;;1999.90;999.90;;;16.90;99.90;;;;;;5021399;28;20041;-66
2023/07/08 05:31:22;;;;;;;1999.90;999.90;;;17.00;99.90;;;;;;5023274;28;20387;-66
2023/07/08 05:33:48;;;;;;;1999.90;999.90;;;17.10;99.90;;;;;;5031810;28;20049;-66
2023/07/08 05:36:14;;;;;;;1999.90;999.90;;;17.20;99.90;;;;;;5039391;28;20081;-66
2023/07/08 05:38:39;;;;;;;1999.90;999.90;;;17.40;99.90;;;;;;5012164;28;20135;-66
2023/07/08 05:41:06;;;;;;;1999.90;999.90;;;17.50;99.90;;;;;;5028515;28;20048;-66
2023/07/08 05:43:31;;;;;;;1999.90;999.90;;;17.60;99.90;;;;;;5022444;28;20104;-66
2023/07/08 05:46:01;;;;;;;1999.90;999.90;;;17.70;99.90;;;;;;5026727;28;20041;-66
2023/07/08 05:48:27;;;;;;;1999.90;999.90;;;17.80;99.90;;;;;;5028371;28;20111;-66
2023/07/08 05:50:53;;;;;;;1999.90;999.90;;;17.90;99.90;;;;;;5026754;28;20979;-66
2023/07/08 05:53:22;;;;;;;1999.90;999.90;;;18.10;99.90;;;;;;5014357;28;20045;-66
2023/07/08 05:55:50;;;;;;;1999.90;999.90;;;18.20;99.90;;;;;;5021240;28;20041;-66
2023/07/08 05:58:16;;;;;;;1999.90;999.90;;;18.30;99.90;;;;;;5017381;28;20049;-66
2023/07/08 06:00:42;;;;;;;1999.90;999.90;;;18.40;99.90;;;;;;5044488;28;20041;-66
2023/07/08 06:03:08;;;;;;;1999.90;999.90;;;18.50;99.90;;;;;;5022306;28;20045;-66
2023/07/08 06:05:34;;;;;;;1999.90;999.90;;;18.60;99.90;;;;;;5015935;28;20046;-66
2023/07/08 06:08:00;;;;;;;1999.90;999.90;;;18.70;99.90;;;;;;5038454;28;20075;-66
2023/07/08 06:10:25;;;;;;;1999.90;999.90;;;18.80;99.90;;;;;;5009742;28;20200;-66
2023/07/08 06:12:51;;;;;;;1999.90;999.90;;;18.90;99.90;;;;;;5017247;28;20061;-67
2023/07/08 06:15:17;;;;;;;1999.90;999.90;;;19.10;99.90;;;;;;5026264;28;20042;-66
2023/07/08 06:17:42;;;;;;;1999.90;999.90;;;19.30;99.90;;;;;;5028195;28;20478;-66
2023/07/08 06:20:08;;;;;;;1999.90;999.90;;;19.50;99.90;;;;;;5043113;28;20045;-66
2023/07/08 06:22:34;;;;;;;1999.90;999.90;;;19.90;99.90;;;;;;5025935;28;20412;-66
2023/07/08 06:25:00;;;;;;;1999.90;999.90;;;20.10;99.90;;;;;;5041148;28;20573;-67
2023/07/08 06:27:25;;;;;;;1999.90;999.90;;;20.40;99.90;;;;;;5007796;28;20034;-67
2023/07/08 06:29:51;;;;;;;1999.90;999.90;;;20.50;99.90;;;;;;5023620;28;20049;-66
2023/07/08 06:32:16;;;;;;;1999.90;999.90;;;20.70;99.90;;;;;;5013343;28;20046;-67
2023/07/08 06:34:42;;;;;;;1999.90;999.90;;;21.40;99.90;;;;;;5042525;28;20044;-67
2023/07/08 06:37:08;;;;;;;1999.90;999.90;;;22.30;99.90;;;;;;5024029;28;20042;-66
2023/07/08 06:39:33;;;;;;;1080.20;954.40;;;23.20;99.90;;;;;;5026844;28;20520;-67
2023/07/08 06:41:59;;;;;;;1027.45;922.00;;;24.10;99.90;;;;;;5032499;28;20044;-67
2023/07/08 06:44:25;;;;;;;1999.90;999.90;;;24.90;99.90;;;;;;5023625;28;20559;-67
2023/07/08 06:46:51;;;;;;;1999.90;999.90;;;25.60;99.90;;;;;;5017466;28;20049;-67
2023/07/08 06:49:17;;;;;;;1999.90;999.90;;;26.10;99.90;;;;;;5039454;28;20053;-67
2023/07/08 06:51:44;;;;;;;1999.90;999.90;;;26.40;97.50;;;;;;5024618;28;20044;-67
2023/07/08 06:54:11;;;;;;;1999.90;999.90;;;26.70;97.40;;;;;;5024758;28;20071;-67
2023/07/08 06:56:38;;;;;;;1999.90;999.90;;;27.10;96.80;;;;;;5022407;28;20696;-67
2023/07/08 06:59:04;;;;;;;1999.90;999.90;;;27.50;96.30;;;;;;5039141;28;20107;-67
2023/07/08 07:01:30;;;;;;;1999.90;999.90;;;28.10;96.00;;;;;;5035290;28;20049;-67
2023/07/08 07:03:56;;;;;;;1999.90;999.90;;;28.50;94.10;;;;;;5037605;28;20045;-67
2023/07/08 07:06:21;;;;;;;1999.90;999.90;;;28.40;89.80;;;;;;5024707;28;20049;-67
2023/07/08 07:08:48;;;;;;;1999.90;999.90;;;28.20;90.30;;;;;;5018961;28;20030;-67
2023/07/08 07:11:13;;;;;;;1999.90;999.90;;;28.20;90.20;;;;;;5022796;28;20560;-67
2023/07/08 07:13:39;;;;;;;1999.90;999.90;;;28.20;89.20;;;;;;5020801;28;20044;-67
2023/07/08 07:16:05;;;;;;;1999.90;999.90;;;28.20;87.40;;;;;;5027278;28;20056;-68
2023/07/08 07:18:30;;;;;;;1706.00;938.28;;;28.40;86.50;;;;;;5024158;28;20041;-67
2023/07/08 07:20:58;;;;;;;906.13;751.45;;;28.40;86.60;;;;;;5037133;28;20691;-67
2023/07/08 07:23:24;;;;;;;1999.90;999.90;;;28.70;86.50;;;;;;5024936;28;20056;-67
2023/07/08 07:25:50;;;;;;;845.90;769.70;;;29.00;87.30;;;;;;5025438;28;20049;-67
2023/07/08 07:28:17;;;;;;;871.13;783.53;;;29.30;85.20;;;;;;5026338;28;20041;-67
2023/07/08 07:30:44;;;;;;;930.95;808.90;;;29.60;83.30;;;;;;5004818;28;20383;-67
2023/07/08 07:33:10;;;;;;;878.55;786.10;;;29.70;83.40;;;;;;5021831;28;20192;-67
2023/07/08 07:35:41;;;;;;;835.80;709.45;;;29.80;81.90;;;;;;5024438;28;20552;-67
2023/07/08 07:38:07;;;;;;;869.53;797.80;;;30.00;82.00;;;;;;5025522;28;20042;-67
2023/07/08 07:40:32;;;;;;;1077.70;985.53;;;30.30;78.60;;;;;;5025416;28;20099;-67
2023/07/08 07:42:58;;;;;;;927.83;852.05;;;30.20;79.50;;;;;;5022373;28;20057;-67
2023/07/08 07:45:23;;;;;;;915.85;842.53;;;29.80;75.80;;;;;;5037744;28;20603;-67
2023/07/08 07:47:49;;;;;;;1017.38;932.15;;;29.50;76.30;;;;;;5040119;28;20509;-67
2023/07/08 07:50:15;;;;;;;885.88;808.45;;;29.40;77.90;;;;;;5040649;28;20053;-67
2023/07/08 07:52:40;;;;;;;783.38;726.28;;;29.70;76.20;;;;;;5022475;28;20041;-67
2023/07/08 07:55:08;;;;;;;730.10;679.15;;;29.30;74.90;;;;;;5024406;28;20045;-67
2023/07/08 07:57:33;;;;;;;891.60;814.05;;;29.00;75.70;;;;;;5025271;28;20041;-67
2023/07/08 07:59:59;;;;;;;909.78;841.03;;;29.00;76.50;;;;;;5020386;28;20103;-67
2023/07/08 08:02:25;;;;;;;784.85;728.90;;;29.00;77.00;;;;;;5017174;28;20037;-67
2023/07/08 08:04:50;;;;;;;721.30;668.42;;;29.10;76.20;;;;;;5031717;28;20486;-67
2023/07/08 08:07:16;;;;;;;718.88;664.70;;;29.00;75.90;;;;;;5016660;28;20116;-67
2023/07/08 08:09:41;;;;;;;742.05;686.47;;;29.00;77.20;;;;;;5028884;28;20780;-67
2023/07/08 08:12:10;;;;;;;955.05;876.50;;;29.30;77.30;;;;;;5020717;28;20045;-68
2023/07/08 08:14:35;;;;;;;795.08;734.42;;;29.60;77.20;;;;;;5019722;28;20516;-67
2023/07/08 08:17:02;;;;;;;908.97;837.13;;;29.30;77.30;;;;;;5021781;28;20037;-67
2023/07/08 08:19:27;;;;;;;711.00;658.25;;;28.70;77.60;;;;;;5023840;28;20045;-67
2023/07/08 08:21:53;;;;;;;968.63;878.22;;;28.70;78.40;;;;;;5022929;28;20129;-68
2023/07/08 08:24:19;;;;;;;1009.70;898.67;;;28.80;77.20;;;;;;5016355;28;20124;-68
2023/07/08 08:26:45;;;;;;;1051.13;934.90;;;29.20;77.00;;;;;;5008340;28;20128;-67
2023/07/08 08:29:10;;;;;;;1073.88;959.60;;;29.40;76.20;;;;;;5014366;28;20531;-68
2023/07/08 08:31:36;;;;;;;1219.20;999.90;;;29.70;75.00;;;;;;5022600;28;20536;-68
2023/07/08 08:34:02;;;;;;;1025.57;920.00;;;29.70;74.90;;;;;;5024968;28;20053;-68
2023/07/08 08:36:27;;;;;;;1186.72;969.13;;;30.00;74.30;;;;;;5035127;28;20052;-67
2023/07/08 08:38:53;;;;;;;988.63;886.47;;;30.30;75.60;;;;;;5024072;28;20133;-68
2023/07/08 08:41:28;;;;;;;1105.90;927.97;;;30.40;72.20;;;;;;5024735;28;20112;-67
2023/07/08 08:43:54;;;;;;;1165.22;946.75;;;30.00;69.60;;;;;;5006216;28;20081;-68
2023/07/08 08:46:25;;;;;;;1140.30;943.13;;;29.70;72.20;;;;;;5020977;28;20069;-67
2023/07/08 08:49:05;;;;;;;1187.13;961.55;;;29.90;73.30;;;;;;5017225;28;20483;-67
2023/07/08 08:51:33;;;;;;;1234.05;943.13;;;29.90;72.80;;;;;;5014825;28;20123;-68
2023/07/08 08:53:59;;;;;;;1289.25;969.53;;;30.00;72.20;;;;;;5019780;28;20053;-67
2023/07/08 08:56:27;;;;;;;978.67;875.15;;;30.10;72.30;;;;;;5028331;28;20120;-67
2023/07/08 08:59:16;;;;;;;1492.25;999.90;;;30.30;69.30;;;;;;5024880;28;20056;-67
2023/07/08 09:01:43;;;;;;;1302.38;985.50;;;30.30;70.80;;;;;;5025712;28;20060;-67
2023/07/08 09:04:25;;;;;;;1171.47;903.20;;;30.30;71.10;;;;;;5025790;28;20045;-67
2023/07/08 09:06:57;;;;;;;1160.40;900.97;;;30.60;72.20;;;;;;5043487;28;20568;-67
2023/07/08 09:09:35;;;;;;;1274.55;995.28;;;30.90;72.50;;;;;;5021991;28;20137;-68
2023/07/08 09:12:09;;;;;;;866.78;789.03;;;31.20;73.00;;;;;;5045755;28;20094;-68
2023/07/08 09:14:38;;;;;;;903.63;824.20;;;31.30;70.00;;;;;;5035330;28;20087;-68
2023/07/08 09:17:22;;;;;;;1003.38;883.28;;;31.20;68.90;;;;;;5041836;28;20087;-68
2023/07/08 09:19:53;;;;;;;;;;;31.20;73.80;;;;;;5015521;28;20049;-67
2023/07/08 09:22:28;;;;;;;950.83;856.08;;;31.30;71.20;;;;;;5029980;28;19925;-68
2023/07/08 09:25:07;;;;;;;782.30;720.65;;;31.50;71.10;;;;;;5001053;28;20115;-68
2023/07/08 09:27:32;;;;;;;1175.18;973.42;;;31.70;70.00;;;;;;5020681;28;20067;-68
2023/07/08 09:29:58;;;;;;;950.92;855.70;;;31.80;71.80;;;;;;5020110;28;20045;-68
2023/07/08 09:32:26;;;;;;;943.47;851.13;;;31.80;70.60;;;;;;5020284;28;20099;-68
2023/07/08 09:35:06;;;;;;;615.63;572.60;;;31.70;69.60;;;;;;5018501;28;21078;-68
2023/07/08 09:37:35;;;;;;;674.70;627.95;;;31.80;67.60;;;;;;5036165;28;20485;-67
2023/07/08 09:40:24;;;;;;;1002.45;900.95;;;31.70;68.80;;;;;;5024730;28;20155;-67
2023/07/08 09:42:54;;;;;;;795.17;729.95;;;31.60;70.50;;;;;;5017800;28;20045;-68
2023/07/08 09:45:23;;;;;;;1033.13;921.88;;;31.60;70.40;;;;;;5038429;28;20068;-68
2023/07/08 09:47:55;;;;;;;731.33;683.00;;;31.70;72.20;;;;;;5012777;28;20041;-67
2023/07/08 09:50:29;;;;;;;721.15;671.72;;;31.70;70.00;;;;;;5018420;28;20642;-67
2023/07/08 09:53:00;;;;;;;807.05;740.08;;;31.70;68.60;;;;;;5024916;28;20041;-68
2023/07/08 09:55:26;;;;;;;821.15;761.83;;;31.60;70.60;;;;;;5023375;28;20509;-68
2023/07/08 09:57:53;;;;;;;842.97;778.28;;;31.70;70.60;;;;;;5025000;28;20041;-67
2023/07/08 10:00:29;;;;;;;849.53;783.97;;;31.70;70.40;;;;;;5038742;28;20145;-68
2023/07/08 10:02:58;;;;;;;755.88;700.88;;;31.50;68.10;;;;;;5026185;28;20083;-68
2023/07/08 10:05:26;;;;;;;839.65;775.67;;;31.40;70.10;;;;;;5023285;28;20060;-68
2023/07/08 10:07:55;;;;;;;909.85;829.88;;;31.40;70.50;;;;;;5043430;28;20137;-69
2023/07/08 10:10:31;;;;;;;833.78;765.90;;;31.50;69.40;;;;;;5024585;28;20493;-67
2023/07/08 10:13:01;;;;;;;576.30;537.58;;;31.50;70.50;;;;;;5024477;28;20056;-68
2023/07/08 10:15:36;;;;;;;666.30;618.88;;;31.50;68.70;;;;;;5023557;28;20046;-68
2023/07/08 10:18:02;;;;;;;635.13;591.28;;;31.50;70.50;;;;;;5019810;28;20041;-69
2023/07/08 10:21:02;;;;;;;790.63;731.17;;;31.50;67.80;;;;;;5025644;28;20485;-68
2023/07/08 10:23:56;;;;;;;792.83;730.47;;;31.30;65.70;;;;;;5018805;28;20134;-67
2023/07/08 10:26:27;;;;;;;730.33;678.35;;;31.00;66.80;;;;;;5045237;28;20044;-68
2023/07/08 10:29:25;;;;;;;739.95;686.90;;;30.90;67.80;;;;;;5024936;28;20053;-67
2023/07/08 10:32:00;;;;;;;669.63;617.08;;;30.90;68.60;;;;;;5038433;28;20049;-67
2023/07/08 10:34:41;;;;;;;787.45;725.15;;;31.10;66.40;;;;;;5040308;28;20067;-67
2023/07/08 10:37:48;;;;;;;743.85;690.67;;;31.00;66.50;;;;;;5028927;28;20084;-67
2023/07/08 10:40:48;;;;;;;896.92;825.65;;;31.10;67.10;;;;;;5016797;28;20058;-67
2023/07/08 10:43:21;;;;;;;791.65;732.03;;;31.20;65.90;;;;;;5038256;28;20071;-67
2023/07/08 10:45:55;;;;;;;884.80;810.85;;;31.20;67.40;;;;;;5038976;28;20049;-67
2023/07/08 10:48:30;;;;;;;;;;;31.30;66.30;;;;;;5021160;28;20120;-68
2023/07/08 10:51:07;;;;;;;802.47;734.08;;;31.30;68.70;;;;;;5025952;28;19920;-68
2023/07/08 10:53:53;;;;;;;752.55;697.40;;;31.60;67.50;;;;;;5024919;28;20049;-67
2023/07/08 10:56:38;;;;;;;719.38;663.85;;;31.60;68.30;;;;;;5021686;28;20046;-68
2023/07/08 10:59:18;;;;;;;;;;;31.70;66.00;;;;;;5024762;28;20050;-67
2023/07/08 11:02:01;;;;;;;700.78;645.38;;;31.70;68.70;;;;;;5019737;28;19924;-68
2023/07/08 11:04:46;;;;;;;633.10;589.33;;;31.80;68.10;;;;;;5043283;28;20055;-67
2023/07/08 11:07:30;;;;;;;707.53;648.85;;;32.00;70.00;;;;;;5024348;28;20046;-68
2023/07/08 11:10:14;;;;;;;1198.57;997.03;;;32.20;67.90;;;;;;5026460;28;20033;-68
2023/07/08 11:12:56;;;;;;;951.60;851.58;;;32.40;66.50;;;;;;5028109;28;20049;-67
2023/07/08 11:15:31;;;;;;;970.72;864.28;;;32.30;66.00;;;;;;5024028;28;20049;-67
2023/07/08 11:18:06;;;;;;;1046.10;934.03;;;32.30;66.20;;;;;;5022873;28;20497;-67
2023/07/08 11:20:46;;;;;;;780.72;716.08;;;32.40;65.90;;;;;;5026672;28;20556;-68
2023/07/08 11:23:43;;;;;;;782.03;705.28;;;32.40;68.70;;;;;;5029442;28;20077;-68
2023/07/08 11:26:21;;;;;;;1055.88;945.75;;;32.60;66.90;;;;;;5021067;28;20120;-67
2023/07/08 11:28:49;;;;;;;1046.70;942.88;;;32.60;66.80;;;;;;5036274;28;20405;-67
2023/07/08 11:31:15;;;;;;;939.95;837.42;;;32.70;65.90;;;;;;5013963;28;20049;-67
2023/07/08 11:33:42;;;;;;;925.80;835.60;;;32.70;67.20;;;;;;5020499;28;20037;-67
2023/07/08 11:36:09;;;;;;;846.45;776.60;;;32.80;67.30;;;;;;5021469;28;20050;-68
2023/07/08 11:38:35;;;;;;;1011.53;907.13;;;32.80;65.70;;;;;;5020742;28;20065;-67
2023/07/08 11:41:12;;;;;;;605.58;547.13;;;32.90;66.20;;;;;;5037325;28;20037;-68
2023/07/08 11:43:42;;;;;;;942.55;862.40;;;32.90;65.90;;;;;;5016670;28;20060;-68
2023/07/08 11:46:25;;;;;;;607.63;564.25;;;33.00;66.30;;;;;;5026898;28;20057;-68
2023/07/08 11:48:52;;;;;;;622.10;581.33;;;32.90;63.80;;;;;;5030002;28;20049;-68
2023/07/08 11:51:29;;;;;;;611.97;568.90;;;32.90;64.60;;;;;;5021867;28;20049;-67
2023/07/08 11:54:04;;;;;;;774.92;719.55;;;33.00;66.10;;;;;;5019225;28;20402;-68
2023/07/08 11:56:50;;;;;;;886.10;802.95;;;33.00;63.40;;;;;;5024344;28;20060;-68
2023/07/08 11:59:20;;;;;;;678.85;623.88;;;33.00;61.90;;;;;;5021202;28;20501;-68
2023/07/08 12:02:00;;;;;;;596.92;556.28;;;33.10;65.10;;;;;;5024429;28;20125;-68
2023/07/08 12:04:29;;;;;;;657.03;608.67;;;33.30;65.70;;;;;;5026364;28;20037;-68
2023/07/08 12:07:17;;;;;;;701.60;648.22;;;33.40;64.70;;;;;;5021871;28;20042;-68
2023/07/08 12:09:59;;;;;;;698.60;644.50;;;33.40;63.50;;;;;;5003464;28;20041;-68
2023/07/08 12:12:29;;;;;;;873.58;804.15;;;33.40;63.60;;;;;;5027008;28;20045;-68
2023/07/08 12:15:25;;;;;;;747.65;689.13;;;33.40;63.60;;;;;;5013178;28;20053;-68
2023/07/08 12:17:54;;;;;;;543.88;506.67;;;33.40;62.70;;;;;;5040748;28;20041;-68